createdAt,value
2018-03-02T00:01:58.511Z,-4.40
2018-03-02T00:04:01.183Z,-4.40
2018-03-02T00:06:03.878Z,-4.40
2018-03-02T00:08:06.566Z,-4.40
2018-03-02T00:10:09.241Z,-4.40
2018-03-02T00:12:11.926Z,-4.40
2018-03-02T00:14:15.425Z,-4.50
2018-03-02T00:16:18.864Z,-4.50
2018-03-02T00:18:21.545Z,-4.50
2018-03-02T00:20:24.199Z,-4.50
2018-03-02T00:22:26.847Z,-4.50
2018-03-02T00:24:30.497Z,-4.60
2018-03-02T00:26:33.216Z,-4.60
2018-03-02T00:28:36.652Z,-4.50
2018-03-02T00:30:39.360Z,-4.60
2018-03-02T00:32:42.042Z,-4.60
2018-03-02T00:34:44.724Z,-4.60
2018-03-02T00:36:47.380Z,-4.60
2018-03-02T00:38:50.062Z,-4.70
2018-03-02T00:40:52.736Z,-4.60
2018-03-02T00:42:55.411Z,-4.70
2018-03-02T00:44:58.118Z,-4.70
2018-03-02T00:47:01.566Z,-4.70
2018-03-02T00:49:04.328Z,-4.70
2018-03-02T00:51:06.982Z,-4.70
2018-03-02T00:53:10.404Z,-4.70
2018-03-02T00:55:13.135Z,-4.70
2018-03-02T00:57:15.801Z,-4.70
2018-03-02T00:59:18.671Z,-4.80
2018-03-02T01:01:21.351Z,-4.70
2018-03-02T01:03:24.044Z,-4.70
2018-03-02T01:05:26.721Z,-4.80
2018-03-02T01:07:30.156Z,-4.80
2018-03-02T01:09:32.801Z,-4.80
2018-03-02T01:11:36.275Z,-4.80
2018-03-02T01:13:39.093Z,-4.80
2018-03-02T01:15:41.768Z,-4.80
2018-03-02T01:17:44.435Z,-4.80
2018-03-02T01:19:47.096Z,-4.80
2018-03-02T01:21:50.566Z,-4.80
2018-03-02T01:23:53.217Z,-4.80
2018-03-02T01:25:55.916Z,-4.80
2018-03-02T01:27:59.476Z,-4.80
2018-03-02T01:30:02.149Z,-4.80
2018-03-02T01:32:05.220Z,-4.80
2018-03-02T01:34:07.893Z,-4.90
2018-03-02T01:36:10.592Z,-4.90
2018-03-02T01:38:13.262Z,-4.80
2018-03-02T01:40:15.919Z,-4.90
2018-03-02T01:42:19.453Z,-4.80
2018-03-02T01:44:22.125Z,-4.80
2018-03-02T01:46:24.836Z,-4.80
2018-03-02T01:48:27.492Z,-4.90
2018-03-02T01:50:30.920Z,-4.90
2018-03-02T01:52:34.375Z,-4.90
2018-03-02T01:54:37.042Z,-4.90
2018-03-02T01:56:39.692Z,-4.90
2018-03-02T01:58:42.408Z,-4.80
2018-03-02T02:00:45.324Z,-4.90
2018-03-02T02:02:48.789Z,-4.90
2018-03-02T02:04:51.441Z,-4.90
2018-03-02T02:06:54.161Z,-4.90
2018-03-02T02:08:56.880Z,-4.80
2018-03-02T02:10:59.589Z,-4.90
2018-03-02T02:13:02.263Z,-4.90
2018-03-02T02:15:05.151Z,-4.90
2018-03-02T02:17:07.813Z,-4.90
2018-03-02T02:19:10.510Z,-4.90
2018-03-02T02:21:13.211Z,-4.90
2018-03-02T02:23:15.887Z,-4.90
2018-03-02T02:25:18.567Z,-4.90
2018-03-02T02:27:22.108Z,-5.00
2018-03-02T02:29:24.992Z,-5.00
2018-03-02T02:31:27.645Z,-4.90
2018-03-02T02:33:30.328Z,-4.90
2018-03-02T02:35:33.022Z,-4.90
2018-03-02T02:37:35.751Z,-4.90
2018-03-02T02:39:39.282Z,-5.00
2018-03-02T02:41:41.959Z,-5.00
2018-03-02T02:43:44.648Z,-5.00
2018-03-02T02:45:47.299Z,-4.90
2018-03-02T02:47:49.953Z,-5.00
2018-03-02T02:49:53.398Z,-4.90
2018-03-02T02:51:56.064Z,-5.00
2018-03-02T02:53:58.732Z,-5.00
2018-03-02T02:56:01.444Z,-5.00
2018-03-02T02:58:04.105Z,-5.00
2018-03-02T03:00:06.814Z,-5.00
2018-03-02T03:02:09.489Z,-5.00
2018-03-02T03:04:12.135Z,-5.00
2018-03-02T03:06:15.600Z,-5.00
2018-03-02T03:08:18.253Z,-5.00
2018-03-02T03:10:20.958Z,-5.00
2018-03-02T03:12:23.607Z,-5.00
2018-03-02T03:14:27.059Z,-5.00
2018-03-02T03:16:29.730Z,-5.10
2018-03-02T03:18:32.515Z,-5.00
2018-03-02T03:20:35.212Z,-5.10
2018-03-02T03:22:37.862Z,-5.10
2018-03-02T03:24:40.627Z,-5.20
2018-03-02T03:26:43.310Z,-5.10
2018-03-02T03:28:45.961Z,-5.20
2018-03-02T03:30:48.859Z,-5.20
2018-03-02T03:32:51.544Z,-5.20
2018-03-02T03:34:54.203Z,-5.20
2018-03-02T03:36:56.880Z,-5.20
2018-03-02T03:38:59.559Z,-5.30
2018-03-02T03:41:02.273Z,-5.30
2018-03-02T03:43:05.088Z,-5.30
2018-03-02T03:45:07.757Z,-5.30
2018-03-02T03:47:11.206Z,-5.30
2018-03-02T03:49:13.888Z,-5.30
2018-03-02T03:51:16.589Z,-5.40
2018-03-02T03:53:20.062Z,-5.30
2018-03-02T03:55:22.714Z,-5.30
2018-03-02T03:57:25.423Z,-5.30
2018-03-02T03:59:28.086Z,-5.40
2018-03-02T04:01:30.902Z,-5.30
2018-03-02T04:03:34.352Z,-5.40
2018-03-02T04:05:37.046Z,-5.40
2018-03-02T04:07:39.751Z,-5.40
2018-03-02T04:09:43.181Z,-5.40
2018-03-02T04:11:45.843Z,-5.40
2018-03-02T04:13:48.578Z,-5.40
2018-03-02T04:15:51.232Z,-5.40
2018-03-02T04:17:53.927Z,-5.50
2018-03-02T04:19:57.054Z,-5.50
2018-03-02T04:21:59.731Z,-5.40
2018-03-02T04:24:02.496Z,-5.50
2018-03-02T04:26:05.953Z,-5.50
2018-03-02T04:28:08.671Z,-5.50
2018-03-02T04:30:11.354Z,-5.40
2018-03-02T04:32:14.011Z,-5.40
2018-03-02T04:34:17.460Z,-5.40
2018-03-02T04:36:20.205Z,-5.50
2018-03-02T04:38:22.892Z,-5.50
2018-03-02T04:40:25.577Z,-5.50
2018-03-02T04:42:28.265Z,-5.50
2018-03-02T04:44:30.962Z,-5.50
2018-03-02T04:46:33.639Z,-5.40
2018-03-02T04:48:36.312Z,-5.40
2018-03-02T04:50:39.009Z,-5.50
2018-03-02T04:52:42.448Z,-5.50
2018-03-02T04:54:45.193Z,-5.50
2018-03-02T04:56:48.921Z,-5.60
2018-03-02T04:58:51.584Z,-5.60
2018-03-02T05:00:54.376Z,-5.60
2018-03-02T05:02:57.038Z,-5.70
2018-03-02T05:04:59.764Z,-5.70
2018-03-02T05:07:02.541Z,-5.70
2018-03-02T05:09:05.241Z,-5.70
2018-03-02T05:11:08.372Z,-5.80
2018-03-02T05:13:11.112Z,-5.80
2018-03-02T05:15:14.633Z,-5.90
2018-03-02T05:17:17.320Z,-5.90
2018-03-02T05:19:20.187Z,-5.90
2018-03-02T05:21:22.938Z,-5.90
2018-03-02T05:23:26.368Z,-6.00
2018-03-02T05:25:29.076Z,-6.00
2018-03-02T05:27:31.759Z,-5.90
2018-03-02T05:29:34.434Z,-5.90
2018-03-02T05:31:37.945Z,-5.90
2018-03-02T05:33:40.892Z,-5.90
2018-03-02T05:35:43.626Z,-5.90
2018-03-02T05:37:47.058Z,-5.80
2018-03-02T05:39:49.749Z,-5.90
2018-03-02T05:41:52.446Z,-5.90
2018-03-02T05:43:55.144Z,-5.90
2018-03-02T05:45:58.591Z,-5.80
2018-03-02T05:48:01.304Z,-5.80
2018-03-02T05:50:04.002Z,-5.80
2018-03-02T05:52:08.561Z,-5.80
2018-03-02T05:54:11.621Z,-5.80
2018-03-02T05:56:14.379Z,-5.70
2018-03-02T05:58:17.850Z,-5.70
2018-03-02T06:00:20.553Z,-5.80
2018-03-02T06:02:24.029Z,-5.80
2018-03-02T06:04:26.751Z,-5.80
2018-03-02T06:06:29.423Z,-5.70
2018-03-02T06:08:32.220Z,-5.80
2018-03-02T06:10:38.072Z,-5.80
2018-03-02T06:12:40.966Z,-5.70
2018-03-02T06:14:44.565Z,-5.70
2018-03-02T06:16:48.394Z,-5.70
2018-03-02T06:18:51.106Z,-5.70
2018-03-02T06:20:53.816Z,-5.70
2018-03-02T06:22:56.518Z,-5.80
2018-03-02T06:24:59.234Z,-5.70
2018-03-02T06:27:02.050Z,-5.70
2018-03-02T06:29:04.732Z,-5.60
2018-03-02T06:31:07.413Z,-5.70
2018-03-02T06:33:10.105Z,-5.70
2018-03-02T06:35:14.873Z,-5.70
2018-03-02T06:37:17.561Z,-5.70
2018-03-02T06:39:20.256Z,-5.70
2018-03-02T06:41:22.956Z,-5.70
2018-03-02T06:43:25.646Z,-5.70
2018-03-02T06:45:28.325Z,-5.70
2018-03-02T06:47:31.771Z,-5.60
2018-03-02T06:49:34.496Z,-5.60
2018-03-02T06:51:38.020Z,-5.70
2018-03-02T06:53:41.122Z,-5.70
2018-03-02T06:55:43.857Z,-5.70
2018-03-02T06:57:47.326Z,-5.70
2018-03-02T06:59:50.031Z,-5.70
2018-03-02T07:01:53.471Z,-5.70
2018-03-02T07:03:56.156Z,-5.70
2018-03-02T07:05:58.834Z,-5.70
2018-03-02T07:08:02.296Z,-5.70
2018-03-02T07:10:05.073Z,-5.70
2018-03-02T07:12:07.753Z,-5.80
2018-03-02T07:14:10.427Z,-5.60
2018-03-02T07:16:13.143Z,-5.40
2018-03-02T07:18:16.205Z,-5.40
2018-03-02T07:20:18.922Z,-5.30
2018-03-02T07:22:21.669Z,-5.40
2018-03-02T07:24:24.350Z,-5.40
2018-03-02T07:26:27.031Z,-5.30
2018-03-02T07:28:29.701Z,-5.30
2018-03-02T07:30:32.418Z,-5.30
2018-03-02T07:32:35.165Z,-5.30
2018-03-02T07:34:37.838Z,-5.10
2018-03-02T07:36:40.533Z,-5.10
2018-03-02T07:38:43.223Z,-5.00
2018-03-02T07:40:45.911Z,-4.90
2018-03-02T07:42:49.341Z,-4.70
2018-03-02T07:44:51.993Z,-4.70
2018-03-02T07:46:54.675Z,-4.70
2018-03-02T07:48:57.348Z,-4.80
2018-03-02T07:51:00.064Z,-4.80
2018-03-02T07:53:02.858Z,-3.60
2018-03-02T07:55:05.569Z,-2.70
2018-03-02T07:57:09.031Z,-3.00
2018-03-02T07:59:11.774Z,-3.00
2018-03-02T08:01:14.464Z,-3.50
2018-03-02T08:03:17.155Z,-3.40
2018-03-02T08:05:19.827Z,-2.50
2018-03-02T08:07:22.530Z,-1.20
2018-03-02T08:09:25.229Z,-2.00
2018-03-02T08:11:28.691Z,-3.30
2018-03-02T08:13:31.544Z,-3.30
2018-03-02T08:15:34.197Z,-3.50
2018-03-02T08:17:36.923Z,-3.60
2018-03-02T08:19:39.597Z,-3.90
2018-03-02T08:21:42.406Z,-3.80
2018-03-02T08:23:45.871Z,-4.30
2018-03-02T08:25:48.617Z,-4.30
2018-03-02T08:27:51.334Z,-4.20
2018-03-02T08:29:54.031Z,-4.30
2018-03-02T08:31:57.492Z,-3.50
2018-03-02T08:34:00.174Z,-3.50
2018-03-02T08:36:02.880Z,-3.30
2018-03-02T08:38:06.360Z,-3.50
2018-03-02T08:40:09.069Z,-3.50
2018-03-02T08:42:11.731Z,-3.40
2018-03-02T08:44:15.189Z,-3.70
2018-03-02T08:46:17.914Z,-3.70
2018-03-02T08:48:20.661Z,-3.90
2018-03-02T08:50:23.529Z,-3.70
2018-03-02T08:52:26.213Z,-3.90
2018-03-02T08:54:28.930Z,-3.50
2018-03-02T08:56:31.673Z,-3.30
2018-03-02T08:58:34.813Z,-3.90
2018-03-02T09:00:37.476Z,-3.90
2018-03-02T09:02:40.165Z,-3.90
2018-03-02T09:04:43.503Z,-3.50
2018-03-02T09:06:46.185Z,-3.90
2018-03-02T09:08:48.949Z,-3.90
2018-03-02T09:10:51.653Z,-3.60
2018-03-02T09:12:55.109Z,-3.40
2018-03-02T09:14:57.876Z,-3.40
2018-03-02T09:17:00.641Z,-3.50
2018-03-02T09:19:03.388Z,-3.40
2018-03-02T09:21:06.098Z,-3.60
2018-03-02T09:23:08.806Z,-3.60
2018-03-02T09:25:11.524Z,-3.50
2018-03-02T09:27:14.198Z,-3.40
2018-03-02T09:29:16.893Z,-3.20
2018-03-02T09:31:19.571Z,-3.60
2018-03-02T09:33:22.250Z,-3.30
2018-03-02T09:35:24.953Z,-3.50
2018-03-02T09:37:27.629Z,-3.30
2018-03-02T09:39:30.324Z,-3.20
2018-03-02T09:41:33.015Z,-3.40
2018-03-02T09:43:36.548Z,-3.20
2018-03-02T09:45:39.233Z,-3.30
2018-03-02T09:47:41.910Z,-3.00
2018-03-02T09:49:44.615Z,-3.20
2018-03-02T09:51:47.281Z,-3.20
2018-03-02T09:53:49.963Z,-2.90
2018-03-02T09:55:52.660Z,-3.20
2018-03-02T09:57:56.127Z,-2.90
2018-03-02T09:59:58.830Z,-2.90
2018-03-02T10:02:01.482Z,-3.20
2018-03-02T10:04:04.231Z,-3.20
2018-03-02T10:06:06.947Z,-3.00
2018-03-02T10:08:09.636Z,-3.00
2018-03-02T10:10:12.334Z,-3.00
2018-03-02T10:12:15.778Z,-2.80
2018-03-02T10:14:19.989Z,-2.60
2018-03-02T10:16:23.163Z,-2.60
2018-03-02T10:18:25.855Z,-3.00
2018-03-02T10:20:28.533Z,-2.80
2018-03-02T10:22:31.206Z,-2.70
2018-03-02T10:24:33.882Z,-2.60
2018-03-02T10:26:36.644Z,-2.50
2018-03-02T10:28:39.322Z,-2.40
2018-03-02T10:30:42.028Z,-2.00
2018-03-02T10:32:44.930Z,-1.90
2018-03-02T10:34:48.374Z,-2.40
2018-03-02T10:36:51.066Z,-2.40
2018-03-02T10:38:53.740Z,-2.20
2018-03-02T10:40:56.603Z,-2.10
2018-03-02T10:42:59.281Z,-2.40
2018-03-02T10:45:02.046Z,-2.20
2018-03-02T10:47:05.481Z,-2.40
2018-03-02T10:49:08.176Z,-2.40
2018-03-02T10:51:10.876Z,-2.30
2018-03-02T10:53:14.330Z,-2.10
2018-03-02T10:55:17.052Z,-2.20
2018-03-02T10:57:19.735Z,-2.10
2018-03-02T10:59:22.415Z,-2.20
2018-03-02T11:01:26.052Z,-2.10
2018-03-02T11:03:28.748Z,-2.10
2018-03-02T11:05:37.048Z,-1.70
2018-03-02T11:07:39.766Z,-1.70
2018-03-02T11:09:42.456Z,-1.80
2018-03-02T11:11:45.207Z,-1.80
2018-03-02T11:13:48.654Z,-1.60
2018-03-02T11:15:52.466Z,-1.60
2018-03-02T11:17:55.224Z,-1.40
2018-03-02T11:19:58.052Z,-1.30
2018-03-02T11:22:01.036Z,-1.50
2018-03-02T11:24:04.518Z,-1.40
2018-03-02T11:26:07.224Z,-1.40
2018-03-02T11:28:09.930Z,-1.40
2018-03-02T11:30:12.707Z,-1.40
2018-03-02T11:32:15.483Z,-1.40
2018-03-02T11:34:18.220Z,-1.30
2018-03-02T11:36:21.668Z,-1.30
2018-03-02T11:38:24.424Z,-1.40
2018-03-02T11:40:27.094Z,-1.20
2018-03-02T11:42:29.772Z,-1.10
2018-03-02T11:44:32.455Z,-1.40
2018-03-02T11:46:35.127Z,-1.40
2018-03-02T11:48:37.874Z,-1.30
2018-03-02T11:50:41.303Z,-1.30
2018-03-02T11:52:44.107Z,-1.30
2018-03-02T11:54:46.787Z,-1.20
2018-03-02T11:56:49.475Z,-1.20
2018-03-02T11:58:52.199Z,-1.10
2018-03-02T12:00:54.871Z,-1.10
2018-03-02T12:02:57.545Z,-1.00
2018-03-02T12:05:00.264Z,-0.90
2018-03-02T12:07:03.066Z,-0.80
2018-03-02T12:09:05.819Z,-1.00
2018-03-02T12:11:08.544Z,-1.00
2018-03-02T12:13:11.976Z,-0.80
2018-03-02T12:15:14.671Z,-0.80
2018-03-02T12:17:17.357Z,-1.00
2018-03-02T12:19:20.049Z,-0.80
2018-03-02T12:21:22.714Z,-1.00
2018-03-02T12:23:25.452Z,-0.90
2018-03-02T12:25:28.358Z,-0.90
2018-03-02T12:27:31.006Z,-0.80
2018-03-02T12:29:33.720Z,-0.80
2018-03-02T12:31:36.390Z,-1.10
2018-03-02T12:33:39.105Z,-1.00
2018-03-02T12:35:41.782Z,-0.90
2018-03-02T12:37:45.653Z,-0.90
2018-03-02T12:39:48.364Z,-1.00
2018-03-02T12:41:54.546Z,-0.90
2018-03-02T12:43:57.264Z,-0.90
2018-03-02T12:45:59.949Z,-0.90
2018-03-02T12:48:02.941Z,-0.70
2018-03-02T12:50:05.643Z,-0.80
2018-03-02T12:52:09.091Z,-0.80
2018-03-02T12:54:11.752Z,-0.80
2018-03-02T12:56:14.479Z,-0.70
2018-03-02T12:58:17.918Z,-0.60
2018-03-02T13:00:20.657Z,-0.60
2018-03-02T13:02:24.162Z,-0.60
2018-03-02T13:04:26.835Z,-0.60
2018-03-02T13:06:29.537Z,-0.60
2018-03-02T13:08:32.208Z,-0.60
2018-03-02T13:10:34.924Z,-0.40
2018-03-02T13:12:37.589Z,-0.50
2018-03-02T13:14:40.409Z,-0.50
2018-03-02T13:16:43.858Z,-0.70
2018-03-02T13:18:46.573Z,-0.70
2018-03-02T13:20:49.252Z,-0.60
2018-03-02T13:22:53.399Z,-0.50
2018-03-02T13:24:56.081Z,-0.50
2018-03-02T13:27:10.865Z,-0.60
2018-03-02T13:29:14.047Z,-0.60
2018-03-02T13:31:16.788Z,-0.60
2018-03-02T13:33:31.595Z,-0.60
2018-03-02T13:35:34.275Z,-0.50
2018-03-02T13:37:37.410Z,-0.50
2018-03-02T13:39:52.084Z,-0.50
2018-03-02T13:42:01.489Z,-0.50
2018-03-02T13:44:04.951Z,-0.40
2018-03-02T13:46:07.609Z,-0.40
2018-03-02T13:50:46.413Z,-0.20
2018-03-02T13:52:49.621Z,-0.20
2018-03-02T13:54:52.326Z,-0.30
2018-03-02T13:57:07.017Z,-0.30
2018-03-02T13:59:10.490Z,-0.20
2018-03-02T14:01:13.182Z,-0.20
2018-03-02T14:03:28.842Z,0.00
2018-03-02T14:05:31.670Z,0.00
2018-03-02T14:07:37.593Z,-0.10
2018-03-02T14:09:43.567Z,0.00
2018-03-02T14:11:48.216Z,0.10
2018-03-02T14:13:51.625Z,0.10
2018-03-02T14:15:54.887Z,0.20
2018-03-02T14:17:57.725Z,0.20
2018-03-02T14:20:01.888Z,0.10
2018-03-02T14:22:04.799Z,0.10
2018-03-02T14:24:07.631Z,0.10
2018-03-02T14:26:11.373Z,0.30
2018-03-02T14:28:14.121Z,0.30
2018-03-02T14:30:16.843Z,0.50
2018-03-02T14:32:19.533Z,0.40
2018-03-02T14:34:22.177Z,0.30
2018-03-02T14:36:24.925Z,0.40
2018-03-02T14:38:27.610Z,0.30
2018-03-02T14:40:30.306Z,0.40
2018-03-02T14:42:32.999Z,0.40
2018-03-02T14:44:36.148Z,0.70
2018-03-02T14:46:38.892Z,0.50
2018-03-02T14:48:42.317Z,0.60
2018-03-02T14:50:45.057Z,0.60
2018-03-02T14:52:48.478Z,0.60
2018-03-02T14:54:51.135Z,0.50
2018-03-02T14:56:53.974Z,0.50
2018-03-02T14:58:56.637Z,0.60
2018-03-02T15:00:59.356Z,0.70
2018-03-02T15:03:02.041Z,0.70
2018-03-02T15:05:04.759Z,0.60
2018-03-02T15:07:07.650Z,0.60
2018-03-02T15:09:10.393Z,0.50
2018-03-02T15:11:14.704Z,0.50
2018-03-02T15:13:17.512Z,0.50
2018-03-02T15:15:20.571Z,0.60
2018-03-02T15:17:23.674Z,0.60
2018-03-02T15:19:27.918Z,0.60
2018-03-02T15:21:30.610Z,0.60
2018-03-02T15:23:34.151Z,0.50
2018-03-02T15:25:36.815Z,0.50
2018-03-02T15:27:39.580Z,0.60
2018-03-02T15:29:43.407Z,0.60
2018-03-02T15:31:46.294Z,0.60
2018-03-02T15:33:49.028Z,0.60
2018-03-02T15:35:51.680Z,0.60
2018-03-02T15:37:54.358Z,0.70
2018-03-02T15:39:57.053Z,0.60
2018-03-02T15:41:59.737Z,0.60
2018-03-02T15:44:02.435Z,0.60
2018-03-02T15:46:05.875Z,0.60
2018-03-02T15:48:08.671Z,0.60
2018-03-02T15:50:11.444Z,0.60
2018-03-02T15:52:14.130Z,0.60
2018-03-02T15:54:16.857Z,0.70
2018-03-02T15:56:19.577Z,0.50
2018-03-02T15:58:22.261Z,0.60
2018-03-02T16:00:24.926Z,0.50
2018-03-02T16:02:27.624Z,0.50
2018-03-02T16:04:31.058Z,0.40
2018-03-02T16:06:33.778Z,0.40
2018-03-02T16:08:36.644Z,0.30
2018-03-02T16:10:39.316Z,0.30
2018-03-02T16:12:41.969Z,0.30
2018-03-02T16:14:46.712Z,0.30
2018-03-02T16:16:49.395Z,0.30
2018-03-02T16:18:52.161Z,0.20
2018-03-02T16:20:54.810Z,0.20
2018-03-02T16:22:57.489Z,0.10
2018-03-02T16:25:00.166Z,0.00
2018-03-02T16:27:02.835Z,0.00
2018-03-02T16:29:05.510Z,0.10
2018-03-02T16:31:08.187Z,0.00
2018-03-02T16:33:10.851Z,0.00
2018-03-02T16:35:14.309Z,0.00
2018-03-02T16:37:16.994Z,0.00
2018-03-02T16:39:19.678Z,0.00
2018-03-02T16:41:22.333Z,0.00
2018-03-02T16:43:24.980Z,0.00
2018-03-02T16:45:27.796Z,0.10
2018-03-02T16:47:30.540Z,0.00
2018-03-02T16:49:33.225Z,0.00
2018-03-02T16:51:35.896Z,0.00
2018-03-02T16:53:38.537Z,0.00
2018-03-02T16:55:42.008Z,0.00
2018-03-02T16:57:44.737Z,0.00
2018-03-02T16:59:47.400Z,0.00
2018-03-02T17:01:50.129Z,0.00
2018-03-02T17:03:52.839Z,0.00
2018-03-02T17:05:56.764Z,0.00
2018-03-02T17:07:59.444Z,0.00
2018-03-02T17:10:02.144Z,0.00
2018-03-02T17:12:04.821Z,0.00
2018-03-02T17:14:07.487Z,0.00
2018-03-02T17:16:10.251Z,0.00
2018-03-02T17:18:12.936Z,0.00
2018-03-02T17:20:15.650Z,0.00
2018-03-02T17:22:18.320Z,0.00
2018-03-02T17:24:21.110Z,0.00
2018-03-02T17:26:23.870Z,0.00
2018-03-02T17:28:26.602Z,0.00
2018-03-02T17:30:30.110Z,0.10
2018-03-02T17:32:32.923Z,0.10
2018-03-02T17:34:35.644Z,0.00
2018-03-02T17:36:38.342Z,0.10
2018-03-02T17:38:41.118Z,0.10
2018-03-02T17:40:43.916Z,0.10
2018-03-02T17:42:46.562Z,0.10
2018-03-02T17:44:49.251Z,0.10
2018-03-02T17:46:51.949Z,0.10
2018-03-02T17:48:54.625Z,0.10
2018-03-02T17:50:57.306Z,0.10
2018-03-02T17:52:59.960Z,0.10
2018-03-02T17:55:02.681Z,0.10
2018-03-02T17:57:05.349Z,0.10
2018-03-02T17:59:08.023Z,0.00
2018-03-02T18:01:10.693Z,0.10
2018-03-02T18:03:13.352Z,0.00
2018-03-02T18:05:15.997Z,0.00
2018-03-02T18:07:18.746Z,0.00
2018-03-02T18:09:21.418Z,0.00
2018-03-02T18:11:24.097Z,-0.10
2018-03-02T18:13:26.824Z,-0.10
2018-03-02T18:15:29.488Z,-0.10
2018-03-02T18:17:32.220Z,-0.20
2018-03-02T18:19:34.880Z,-0.20
2018-03-02T18:21:37.560Z,-0.20
2018-03-02T18:23:40.266Z,-0.20
2018-03-02T18:25:43.709Z,-0.30
2018-03-02T18:27:46.402Z,-0.30
2018-03-02T18:29:49.655Z,-0.30
2018-03-02T18:31:52.308Z,-0.30
2018-03-02T18:33:56.131Z,-0.30
2018-03-02T18:35:58.805Z,-0.30
2018-03-02T18:38:01.679Z,-0.40
2018-03-02T18:40:04.436Z,-0.40
2018-03-02T18:42:07.101Z,-0.40
2018-03-02T18:44:10.735Z,-0.40
2018-03-02T18:46:13.403Z,-0.50
2018-03-02T18:48:17.441Z,-0.60
2018-03-02T18:50:20.138Z,-0.60
2018-03-02T18:52:22.788Z,-0.70
2018-03-02T18:54:25.478Z,-0.70
2018-03-02T18:56:28.148Z,-0.80
2018-03-02T18:58:30.864Z,-0.80
2018-03-02T19:00:33.545Z,-0.80
2018-03-02T19:02:36.203Z,-0.80
2018-03-02T19:04:38.885Z,-0.80
2018-03-02T19:06:41.585Z,-0.80
2018-03-02T19:08:44.253Z,-0.80
2018-03-02T19:10:47.416Z,-0.90
2018-03-02T19:12:50.165Z,-0.90
2018-03-02T19:14:52.853Z,-0.90
2018-03-02T19:16:55.502Z,-0.90
2018-03-02T19:18:58.149Z,-0.90
2018-03-02T19:21:00.864Z,-0.90
2018-03-02T19:23:03.534Z,-0.90
2018-03-02T19:25:06.997Z,-0.80
2018-03-02T19:27:09.716Z,-0.90
2018-03-02T19:29:12.382Z,-0.80
2018-03-02T19:31:15.060Z,-0.80
2018-03-02T19:33:17.832Z,-0.80
2018-03-02T19:35:20.571Z,-0.80
2018-03-02T19:37:23.238Z,-0.90
2018-03-02T19:39:26.082Z,-0.90
2018-03-02T19:41:28.756Z,-0.90
2018-03-02T19:43:31.435Z,-0.90
2018-03-02T19:45:34.199Z,-0.90
2018-03-02T19:47:36.899Z,-1.00
2018-03-02T19:49:39.536Z,-1.10
2018-03-02T19:51:43.038Z,-1.20
2018-03-02T19:53:46.438Z,-1.30
2018-03-02T19:55:49.279Z,-1.30
2018-03-02T19:57:51.984Z,-1.40
2018-03-02T19:59:55.585Z,-1.40
2018-03-02T20:02:00.137Z,-1.40
2018-03-02T20:04:02.827Z,-1.50
2018-03-02T20:06:05.495Z,-1.50
2018-03-02T20:08:08.200Z,-1.50
2018-03-02T20:10:10.874Z,-1.50
2018-03-02T20:12:13.623Z,-1.50
2018-03-02T20:14:16.569Z,-1.60
2018-03-02T20:16:21.119Z,-1.60
2018-03-02T20:18:23.805Z,-1.60
2018-03-02T20:20:26.475Z,-1.60
2018-03-02T20:22:29.180Z,-1.70
2018-03-02T20:24:31.890Z,-1.70
2018-03-02T20:26:35.305Z,-1.80
2018-03-02T20:28:38.012Z,-1.80
2018-03-02T20:30:40.658Z,-1.80
2018-03-02T20:32:43.473Z,-1.80
2018-03-02T20:34:46.162Z,-1.80
2018-03-02T20:36:48.827Z,-1.80
2018-03-02T20:38:51.519Z,-1.90
2018-03-02T20:40:54.260Z,-1.90
2018-03-02T20:42:56.941Z,-2.00
2018-03-02T20:44:59.594Z,-2.00
2018-03-02T20:47:02.259Z,-2.10
2018-03-02T20:49:05.083Z,-2.10
2018-03-02T20:51:07.813Z,-2.20
2018-03-02T20:53:11.407Z,-2.30
2018-03-02T20:55:14.913Z,-2.40
2018-03-02T20:57:17.595Z,-2.40
2018-03-02T20:59:20.313Z,-2.40
2018-03-02T21:01:23.758Z,-2.50
2018-03-02T21:03:26.423Z,-2.50
2018-03-02T21:05:29.893Z,-2.60
2018-03-02T21:07:32.704Z,-2.60
2018-03-02T21:09:35.524Z,-2.60
2018-03-02T21:11:38.169Z,-2.50
2018-03-02T21:13:40.873Z,-2.60
2018-03-02T21:15:43.639Z,-2.60
2018-03-02T21:17:47.154Z,-2.60
2018-03-02T21:19:49.918Z,-2.60
2018-03-02T21:21:52.670Z,-2.60
2018-03-02T21:23:55.685Z,-2.60
2018-03-02T21:25:58.365Z,-2.70
2018-03-02T21:28:01.029Z,-2.70
2018-03-02T21:30:03.755Z,-2.70
2018-03-02T21:32:06.424Z,-2.70
2018-03-02T21:34:09.159Z,-2.70
2018-03-02T21:36:11.888Z,-2.70
2018-03-02T21:38:14.556Z,-2.70
2018-03-02T21:40:17.266Z,-2.70
2018-03-02T21:42:19.935Z,-2.70
2018-03-02T21:44:23.360Z,-2.70
2018-03-02T21:46:26.034Z,-2.70
2018-03-02T21:48:28.803Z,-2.70
2018-03-02T21:50:31.527Z,-2.70
2018-03-02T21:52:34.642Z,-2.70
2018-03-02T21:54:38.211Z,-2.70
2018-03-02T21:56:40.941Z,-2.70
2018-03-02T21:58:43.847Z,-2.70
2018-03-02T22:00:46.597Z,-2.60
2018-03-02T22:02:49.338Z,-2.60
2018-03-02T22:04:52.190Z,-2.60
2018-03-02T22:06:54.871Z,-2.60
2018-03-02T22:08:57.540Z,-2.60
2018-03-02T22:11:00.193Z,-2.60
2018-03-02T22:13:02.965Z,-2.60
2018-03-02T22:15:05.646Z,-2.60
2018-03-02T22:17:08.391Z,-2.60
2018-03-02T22:19:11.843Z,-2.70
2018-03-02T22:21:14.537Z,-2.70
2018-03-02T22:23:17.212Z,-2.60
2018-03-02T22:25:19.898Z,-2.70
2018-03-02T22:27:22.574Z,-2.70
2018-03-02T22:29:25.300Z,-2.70
2018-03-02T22:31:28.007Z,-2.70
2018-03-02T22:33:31.624Z,-2.70
2018-03-02T22:35:35.056Z,-2.70
2018-03-02T22:37:37.777Z,-2.70
2018-03-02T22:39:40.815Z,-2.60
2018-03-02T22:41:43.970Z,-2.60
2018-03-02T22:43:46.985Z,-2.70
2018-03-02T22:45:49.680Z,-2.70
2018-03-02T22:47:52.378Z,-2.60
2018-03-02T22:49:55.051Z,-2.60
2018-03-02T22:51:58.087Z,-2.70
2018-03-02T22:54:01.535Z,-2.70
2018-03-02T22:56:04.225Z,-2.80
2018-03-02T22:58:07.053Z,-2.70
2018-03-02T23:00:10.049Z,-2.70
2018-03-02T23:02:12.697Z,-2.70
2018-03-02T23:04:15.445Z,-2.70
2018-03-02T23:06:18.120Z,-2.70
2018-03-02T23:08:20.883Z,-2.70
2018-03-02T23:10:23.582Z,-2.70
2018-03-02T23:12:26.261Z,-2.70
2018-03-02T23:14:28.977Z,-2.70
2018-03-02T23:16:31.678Z,-2.70
2018-03-02T23:18:34.370Z,-2.70
2018-03-02T23:20:37.072Z,-2.70
2018-03-02T23:22:40.203Z,-2.70
2018-03-02T23:24:42.909Z,-2.70
2018-03-02T23:26:45.561Z,-2.70
2018-03-02T23:28:48.441Z,-2.70
2018-03-02T23:30:51.230Z,-2.70
2018-03-02T23:32:53.891Z,-2.70
2018-03-02T23:34:57.384Z,-2.70
2018-03-02T23:37:00.037Z,-2.70
2018-03-02T23:39:03.551Z,-2.70
2018-03-02T23:41:07.053Z,-2.70
2018-03-02T23:43:09.726Z,-2.70
2018-03-02T23:45:12.430Z,-2.70
2018-03-02T23:47:15.125Z,-2.70
2018-03-02T23:49:17.792Z,-2.70
2018-03-02T23:51:20.488Z,-2.70
2018-03-02T23:53:23.179Z,-2.70
2018-03-02T23:55:26.800Z,-2.70
2018-03-02T23:57:29.480Z,-2.70
2018-03-02T23:59:32.153Z,-2.70
